sensor_id;sensor_type;location;lat;lon;timestamp;P1;durP1;ratioP1;P2;durP2;ratioP2
8102;SDS011;4094;49.948;11.574;2022-08-19T00:02:07;15.90;;;14.53;;
8102;SDS011;4094;49.948;11.574;2022-08-19T00:04:37;16.13;;;14.53;;
8102;SDS011;4094;49.948;11.574;2022-08-19T00:07:07;14.30;;;13.20;;
8102;SDS011;4094;49.948;11.574;2022-08-19T00:09:36;15.73;;;14.33;;
8102;SDS011;4094;49.948;11.574;2022-08-19T00:12:05;15.27;;;13.97;;
8102;SDS011;4094;49.948;11.574;2022-08-19T00:14:35;15.60;;;14.20;;
8102;SDS011;4094;49.948;11.574;2022-08-19T00:17:05;14.97;;;13.73;;
8102;SDS011;4094;49.948;11.574;2022-08-19T00:19:35;14.97;;;13.73;;
8102;SDS011;4094;49.948;11.574;2022-08-19T00:22:07;14.73;;;13.53;;
8102;SDS011;4094;49.948;11.574;2022-08-19T00:24:37;14.97;;;13.57;;
8102;SDS011;4094;49.948;11.574;2022-08-19T00:27:17;15.27;;;13.87;;
8102;SDS011;4094;49.948;11.574;2022-08-19T00:29:53;15.23;;;13.83;;
8102;SDS011;4094;49.948;11.574;2022-08-19T00:32:22;15.07;;;13.87;;
8102;SDS011;4094;49.948;11.574;2022-08-19T00:34:54;15.43;;;14.23;;
8102;SDS011;4094;49.948;11.574;2022-08-19T00:37:24;14.50;;;13.37;;
8102;SDS011;4094;49.948;11.574;2022-08-19T00:39:53;15.27;;;14.00;;
8102;SDS011;4094;49.948;11.574;2022-08-19T00:42:22;15.53;;;14.27;;
8102;SDS011;4094;49.948;11.574;2022-08-19T00:44:55;15.97;;;14.57;;
8102;SDS011;4094;49.948;11.574;2022-08-19T00:47:24;15.93;;;14.53;;
8102;SDS011;4094;49.948;11.574;2022-08-19T00:49:56;16.47;;;15.07;;
8102;SDS011;4094;49.948;11.574;2022-08-19T00:52:27;15.77;;;14.47;;
8102;SDS011;4094;49.948;11.574;2022-08-19T00:54:59;15.90;;;14.57;;
8102;SDS011;4094;49.948;11.574;2022-08-19T00:57:30;14.97;;;13.63;;
8102;SDS011;4094;49.948;11.574;2022-08-19T01:00:06;15.43;;;14.17;;
8102;SDS011;4094;49.948;11.574;2022-08-19T01:02:37;16.30;;;14.90;;
8102;SDS011;4094;49.948;11.574;2022-08-19T01:05:10;16.93;;;15.47;;
8102;SDS011;4094;49.948;11.574;2022-08-19T01:07:42;15.47;;;14.17;;
8102;SDS011;4094;49.948;11.574;2022-08-19T01:10:12;16.23;;;14.90;;
8102;SDS011;4094;49.948;11.574;2022-08-19T01:12:43;15.40;;;14.13;;
8102;SDS011;4094;49.948;11.574;2022-08-19T01:15:14;15.70;;;14.50;;
8102;SDS011;4094;49.948;11.574;2022-08-19T01:17:47;15.00;;;13.70;;
8102;SDS011;4094;49.948;11.574;2022-08-19T01:20:20;15.53;;;14.23;;
8102;SDS011;4094;49.948;11.574;2022-08-19T01:22:53;15.80;;;14.50;;
8102;SDS011;4094;49.948;11.574;2022-08-19T01:25:24;14.77;;;13.57;;
8102;SDS011;4094;49.948;11.574;2022-08-19T01:27:56;13.90;;;12.80;;
8102;SDS011;4094;49.948;11.574;2022-08-19T01:30:37;14.20;;;13.10;;
8102;SDS011;4094;49.948;11.574;2022-08-19T01:33:10;14.43;;;13.33;;
8102;SDS011;4094;49.948;11.574;2022-08-19T01:35:40;15.87;;;14.47;;
8102;SDS011;4094;49.948;11.574;2022-08-19T01:38:19;15.63;;;14.33;;
8102;SDS011;4094;49.948;11.574;2022-08-19T01:40:50;15.40;;;14.20;;
8102;SDS011;4094;49.948;11.574;2022-08-19T01:43:20;15.33;;;14.07;;
8102;SDS011;4094;49.948;11.574;2022-08-19T01:45:49;16.27;;;14.93;;
8102;SDS011;4094;49.948;11.574;2022-08-19T01:48:18;16.50;;;15.07;;
8102;SDS011;4094;49.948;11.574;2022-08-19T01:50:47;15.70;;;14.37;;
8102;SDS011;4094;49.948;11.574;2022-08-19T01:53:19;15.20;;;13.90;;
8102;SDS011;4094;49.948;11.574;2022-08-19T01:55:53;15.73;;;14.43;;
8102;SDS011;4094;49.948;11.574;2022-08-19T01:58:23;15.17;;;13.97;;
8102;SDS011;4094;49.948;11.574;2022-08-19T02:00:57;15.10;;;13.87;;
8102;SDS011;4094;49.948;11.574;2022-08-19T02:03:26;14.40;;;13.20;;
8102;SDS011;4094;49.948;11.574;2022-08-19T02:05:56;14.77;;;13.57;;
8102;SDS011;4094;49.948;11.574;2022-08-19T02:08:29;14.37;;;13.17;;
8102;SDS011;4094;49.948;11.574;2022-08-19T02:10:58;14.90;;;13.70;;
8102;SDS011;4094;49.948;11.574;2022-08-19T02:13:28;14.80;;;13.57;;
8102;SDS011;4094;49.948;11.574;2022-08-19T02:15:57;14.67;;;13.57;;
8102;SDS011;4094;49.948;11.574;2022-08-19T02:18:30;14.30;;;13.20;;
8102;SDS011;4094;49.948;11.574;2022-08-19T02:21:00;14.17;;;12.83;;
8102;SDS011;4094;49.948;11.574;2022-08-19T02:23:32;14.57;;;13.37;;
8102;SDS011;4094;49.948;11.574;2022-08-19T02:26:01;14.33;;;13.13;;
8102;SDS011;4094;49.948;11.574;2022-08-19T02:28:31;14.77;;;13.57;;
8102;SDS011;4094;49.948;11.574;2022-08-19T02:31:00;14.53;;;13.43;;
8102;SDS011;4094;49.948;11.574;2022-08-19T02:33:29;14.43;;;13.33;;
8102;SDS011;4094;49.948;11.574;2022-08-19T02:35:58;14.67;;;13.57;;
8102;SDS011;4094;49.948;11.574;2022-08-19T02:38:28;15.37;;;14.00;;
8102;SDS011;4094;49.948;11.574;2022-08-19T02:40:58;15.07;;;13.87;;
8102;SDS011;4094;49.948;11.574;2022-08-19T02:43:29;14.80;;;13.70;;
8102;SDS011;4094;49.948;11.574;2022-08-19T02:46:10;15.27;;;13.93;;
8102;SDS011;4094;49.948;11.574;2022-08-19T02:48:40;14.10;;;13.00;;
8102;SDS011;4094;49.948;11.574;2022-08-19T02:51:09;14.60;;;13.40;;
8102;SDS011;4094;49.948;11.574;2022-08-19T02:53:44;14.83;;;13.63;;
8102;SDS011;4094;49.948;11.574;2022-08-19T02:56:15;13.77;;;12.77;;
8102;SDS011;4094;49.948;11.574;2022-08-19T02:58:45;14.37;;;13.17;;
8102;SDS011;4094;49.948;11.574;2022-08-19T03:01:19;14.03;;;12.83;;
8102;SDS011;4094;49.948;11.574;2022-08-19T03:03:49;13.70;;;12.50;;
8102;SDS011;4094;49.948;11.574;2022-08-19T03:06:19;13.27;;;12.13;;
8102;SDS011;4094;49.948;11.574;2022-08-19T03:08:48;13.53;;;12.53;;
8102;SDS011;4094;49.948;11.574;2022-08-19T03:11:20;14.03;;;12.93;;
8102;SDS011;4094;49.948;11.574;2022-08-19T03:13:51;14.30;;;13.10;;
8102;SDS011;4094;49.948;11.574;2022-08-19T03:16:21;14.27;;;13.07;;
8102;SDS011;4094;49.948;11.574;2022-08-19T03:18:52;14.50;;;13.30;;
8102;SDS011;4094;49.948;11.574;2022-08-19T03:21:22;13.53;;;12.33;;
8102;SDS011;4094;49.948;11.574;2022-08-19T03:23:53;14.30;;;13.10;;
8102;SDS011;4094;49.948;11.574;2022-08-19T03:26:24;13.83;;;12.70;;
8102;SDS011;4094;49.948;11.574;2022-08-19T03:28:53;13.77;;;12.57;;
8102;SDS011;4094;49.948;11.574;2022-08-19T03:31:26;14.40;;;13.10;;
8102;SDS011;4094;49.948;11.574;2022-08-19T03:34:16;13.60;;;12.50;;
8102;SDS011;4094;49.948;11.574;2022-08-19T03:36:47;14.23;;;13.03;;
8102;SDS011;4094;49.948;11.574;2022-08-19T03:39:16;13.73;;;12.70;;
8102;SDS011;4094;49.948;11.574;2022-08-19T03:41:47;13.77;;;12.73;;
8102;SDS011;4094;49.948;11.574;2022-08-19T03:44:37;14.10;;;13.00;;
8102;SDS011;4094;49.948;11.574;2022-08-19T03:47:06;14.40;;;13.27;;
8102;SDS011;4094;49.948;11.574;2022-08-19T03:49:35;14.33;;;13.13;;
8102;SDS011;4094;49.948;11.574;2022-08-19T03:52:05;15.13;;;13.83;;
8102;SDS011;4094;49.948;11.574;2022-08-19T03:54:35;14.47;;;13.27;;
8102;SDS011;4094;49.948;11.574;2022-08-19T03:57:07;14.00;;;12.83;;
8102;SDS011;4094;49.948;11.574;2022-08-19T03:59:36;13.97;;;12.83;;
8102;SDS011;4094;49.948;11.574;2022-08-19T04:02:07;14.70;;;13.40;;
8102;SDS011;4094;49.948;11.574;2022-08-19T04:04:38;14.80;;;13.60;;
8102;SDS011;4094;49.948;11.574;2022-08-19T04:07:10;13.90;;;12.80;;
8102;SDS011;4094;49.948;11.574;2022-08-19T04:09:43;13.77;;;12.70;;
8102;SDS011;4094;49.948;11.574;2022-08-19T04:12:14;13.57;;;12.47;;
8102;SDS011;4094;49.948;11.574;2022-08-19T04:14:43;15.10;;;13.83;;
8102;SDS011;4094;49.948;11.574;2022-08-19T04:17:12;14.63;;;13.33;;
8102;SDS011;4094;49.948;11.574;2022-08-19T04:19:42;13.27;;;12.27;;
8102;SDS011;4094;49.948;11.574;2022-08-19T04:22:12;14.73;;;13.43;;
8102;SDS011;4094;49.948;11.574;2022-08-19T04:24:41;14.33;;;13.23;;
8102;SDS011;4094;49.948;11.574;2022-08-19T04:27:10;15.10;;;13.80;;
8102;SDS011;4094;49.948;11.574;2022-08-19T04:29:41;14.07;;;12.97;;
8102;SDS011;4094;49.948;11.574;2022-08-19T04:32:11;14.43;;;13.13;;
8102;SDS011;4094;49.948;11.574;2022-08-19T04:34:42;14.70;;;13.37;;
8102;SDS011;4094;49.948;11.574;2022-08-19T04:37:31;14.77;;;13.60;;
8102;SDS011;4094;49.948;11.574;2022-08-19T04:40:03;15.47;;;14.17;;
8102;SDS011;4094;49.948;11.574;2022-08-19T04:42:50;14.87;;;13.77;;
8102;SDS011;4094;49.948;11.574;2022-08-19T04:45:22;15.73;;;14.53;;
8102;SDS011;4094;49.948;11.574;2022-08-19T04:47:54;15.87;;;14.53;;
8102;SDS011;4094;49.948;11.574;2022-08-19T04:50:44;16.17;;;14.70;;
8102;SDS011;4094;49.948;11.574;2022-08-19T04:53:13;14.50;;;13.30;;
8102;SDS011;4094;49.948;11.574;2022-08-19T04:55:43;15.83;;;14.53;;
8102;SDS011;4094;49.948;11.574;2022-08-19T04:58:12;14.37;;;13.27;;
8102;SDS011;4094;49.948;11.574;2022-08-19T05:00:43;13.13;;;11.97;;
8102;SDS011;4094;49.948;11.574;2022-08-19T05:03:12;15.43;;;14.10;;
8102;SDS011;4094;49.948;11.574;2022-08-19T05:05:44;14.87;;;13.77;;
8102;SDS011;4094;49.948;11.574;2022-08-19T05:08:16;14.73;;;13.53;;
8102;SDS011;4094;49.948;11.574;2022-08-19T05:10:58;14.50;;;13.20;;
8102;SDS011;4094;49.948;11.574;2022-08-19T05:13:27;14.70;;;13.50;;
8102;SDS011;4094;49.948;11.574;2022-08-19T05:15:59;15.00;;;13.70;;
8102;SDS011;4094;49.948;11.574;2022-08-19T05:18:28;15.00;;;13.80;;
8102;SDS011;4094;49.948;11.574;2022-08-19T05:21:17;15.57;;;14.27;;
8102;SDS011;4094;49.948;11.574;2022-08-19T05:24:05;14.67;;;13.47;;
8102;SDS011;4094;49.948;11.574;2022-08-19T05:26:36;14.67;;;13.47;;
8102;SDS011;4094;49.948;11.574;2022-08-19T05:29:06;15.47;;;14.23;;
8102;SDS011;4094;49.948;11.574;2022-08-19T05:31:37;15.07;;;13.70;;
8102;SDS011;4094;49.948;11.574;2022-08-19T05:34:08;14.73;;;13.53;;
8102;SDS011;4094;49.948;11.574;2022-08-19T05:36:47;15.70;;;14.30;;
8102;SDS011;4094;49.948;11.574;2022-08-19T05:39:18;15.27;;;13.97;;
8102;SDS011;4094;49.948;11.574;2022-08-19T05:41:49;15.73;;;14.33;;
8102;SDS011;4094;49.948;11.574;2022-08-19T05:44:20;15.80;;;14.33;;
8102;SDS011;4094;49.948;11.574;2022-08-19T05:46:51;14.93;;;13.73;;
8102;SDS011;4094;49.948;11.574;2022-08-19T05:49:21;15.87;;;14.47;;
8102;SDS011;4094;49.948;11.574;2022-08-19T05:51:52;15.57;;;14.00;;
8102;SDS011;4094;49.948;11.574;2022-08-19T05:54:22;16.00;;;14.60;;
8102;SDS011;4094;49.948;11.574;2022-08-19T05:56:52;15.10;;;13.80;;
8102;SDS011;4094;49.948;11.574;2022-08-19T05:59:21;14.97;;;13.77;;
8102;SDS011;4094;49.948;11.574;2022-08-19T06:01:52;14.00;;;12.90;;
8102;SDS011;4094;49.948;11.574;2022-08-19T06:04:24;15.07;;;13.77;;
8102;SDS011;4094;49.948;11.574;2022-08-19T06:06:53;15.37;;;14.07;;
8102;SDS011;4094;49.948;11.574;2022-08-19T06:09:23;14.03;;;12.93;;
8102;SDS011;4094;49.948;11.574;2022-08-19T06:11:54;15.07;;;13.67;;
8102;SDS011;4094;49.948;11.574;2022-08-19T06:14:27;16.30;;;14.90;;
8102;SDS011;4094;49.948;11.574;2022-08-19T06:17:01;15.87;;;14.37;;
8102;SDS011;4094;49.948;11.574;2022-08-19T06:19:33;15.50;;;14.07;;
8102;SDS011;4094;49.948;11.574;2022-08-19T06:22:07;15.40;;;13.90;;
8102;SDS011;4094;49.948;11.574;2022-08-19T06:24:40;15.37;;;13.93;;
8102;SDS011;4094;49.948;11.574;2022-08-19T06:27:09;15.60;;;14.20;;
8102;SDS011;4094;49.948;11.574;2022-08-19T06:29:38;14.60;;;13.40;;
8102;SDS011;4094;49.948;11.574;2022-08-19T06:32:09;14.53;;;13.23;;
8102;SDS011;4094;49.948;11.574;2022-08-19T06:34:39;15.43;;;13.83;;
8102;SDS011;4094;49.948;11.574;2022-08-19T06:37:08;14.67;;;13.53;;
8102;SDS011;4094;49.948;11.574;2022-08-19T06:39:39;14.17;;;13.07;;
8102;SDS011;4094;49.948;11.574;2022-08-19T06:42:10;14.63;;;13.33;;
8102;SDS011;4094;49.948;11.574;2022-08-19T06:44:45;14.83;;;13.53;;
8102;SDS011;4094;49.948;11.574;2022-08-19T06:47:21;14.93;;;13.53;;
8102;SDS011;4094;49.948;11.574;2022-08-19T06:49:55;14.80;;;13.60;;
8102;SDS011;4094;49.948;11.574;2022-08-19T06:52:30;15.90;;;14.60;;
8102;SDS011;4094;49.948;11.574;2022-08-19T06:55:03;15.57;;;14.17;;
8102;SDS011;4094;49.948;11.574;2022-08-19T06:57:33;15.53;;;14.30;;
8102;SDS011;4094;49.948;11.574;2022-08-19T07:00:04;15.30;;;13.80;;
8102;SDS011;4094;49.948;11.574;2022-08-19T07:02:41;15.63;;;14.43;;
8102;SDS011;4094;49.948;11.574;2022-08-19T07:05:19;16.20;;;14.87;;
8102;SDS011;4094;49.948;11.574;2022-08-19T07:07:48;16.53;;;15.13;;
8102;SDS011;4094;49.948;11.574;2022-08-19T07:10:19;16.30;;;14.77;;
8102;SDS011;4094;49.948;11.574;2022-08-19T07:12:48;16.60;;;15.07;;
8102;SDS011;4094;49.948;11.574;2022-08-19T07:15:18;17.03;;;15.60;;
8102;SDS011;4094;49.948;11.574;2022-08-19T07:17:50;17.40;;;15.90;;
8102;SDS011;4094;49.948;11.574;2022-08-19T07:20:20;15.63;;;14.23;;
8102;SDS011;4094;49.948;11.574;2022-08-19T07:22:55;16.20;;;14.70;;
8102;SDS011;4094;49.948;11.574;2022-08-19T07:25:24;16.80;;;15.30;;
8102;SDS011;4094;49.948;11.574;2022-08-19T07:27:58;16.83;;;15.33;;
8102;SDS011;4094;49.948;11.574;2022-08-19T07:30:28;17.30;;;15.70;;
8102;SDS011;4094;49.948;11.574;2022-08-19T07:32:59;16.90;;;15.40;;
8102;SDS011;4094;49.948;11.574;2022-08-19T07:35:30;16.57;;;15.07;;
8102;SDS011;4094;49.948;11.574;2022-08-19T07:38:01;16.07;;;14.67;;
8102;SDS011;4094;49.948;11.574;2022-08-19T07:40:30;15.63;;;14.33;;
8102;SDS011;4094;49.948;11.574;2022-08-19T07:42:59;16.43;;;14.97;;
8102;SDS011;4094;49.948;11.574;2022-08-19T07:45:29;16.23;;;14.73;;
8102;SDS011;4094;49.948;11.574;2022-08-19T07:48:00;17.93;;;15.83;;
8102;SDS011;4094;49.948;11.574;2022-08-19T07:50:30;17.00;;;15.37;;
8102;SDS011;4094;49.948;11.574;2022-08-19T07:52:58;15.07;;;13.77;;
8102;SDS011;4094;49.948;11.574;2022-08-19T07:55:28;16.77;;;15.27;;
8102;SDS011;4094;49.948;11.574;2022-08-19T07:58:10;16.77;;;15.27;;
8102;SDS011;4094;49.948;11.574;2022-08-19T08:00:40;16.13;;;14.73;;
8102;SDS011;4094;49.948;11.574;2022-08-19T08:03:12;18.23;;;16.43;;
8102;SDS011;4094;49.948;11.574;2022-08-19T08:05:42;17.10;;;15.60;;
8102;SDS011;4094;49.948;11.574;2022-08-19T08:08:28;16.83;;;15.43;;
8102;SDS011;4094;49.948;11.574;2022-08-19T08:11:16;16.53;;;15.20;;
8102;SDS011;4094;49.948;11.574;2022-08-19T08:13:47;17.20;;;15.60;;
8102;SDS011;4094;49.948;11.574;2022-08-19T08:16:30;18.33;;;16.73;;
8102;SDS011;4094;49.948;11.574;2022-08-19T08:19:14;18.77;;;16.90;;
8102;SDS011;4094;49.948;11.574;2022-08-19T08:21:52;16.50;;;14.83;;
8102;SDS011;4094;49.948;11.574;2022-08-19T08:24:22;17.13;;;15.60;;
8102;SDS011;4094;49.948;11.574;2022-08-19T08:26:55;17.70;;;15.93;;
8102;SDS011;4094;49.948;11.574;2022-08-19T08:29:26;16.93;;;15.33;;
8102;SDS011;4094;49.948;11.574;2022-08-19T08:32:02;16.53;;;15.13;;
8102;SDS011;4094;49.948;11.574;2022-08-19T08:34:42;16.80;;;15.30;;
8102;SDS011;4094;49.948;11.574;2022-08-19T08:37:19;15.13;;;13.83;;
8102;SDS011;4094;49.948;11.574;2022-08-19T08:39:50;14.67;;;13.27;;
8102;SDS011;4094;49.948;11.574;2022-08-19T08:42:20;13.97;;;12.57;;
8102;SDS011;4094;49.948;11.574;2022-08-19T08:44:53;13.90;;;12.70;;
8102;SDS011;4094;49.948;11.574;2022-08-19T08:47:29;14.43;;;13.03;;
8102;SDS011;4094;49.948;11.574;2022-08-19T08:50:07;14.63;;;13.43;;
8102;SDS011;4094;49.948;11.574;2022-08-19T08:52:44;14.80;;;13.33;;
8102;SDS011;4094;49.948;11.574;2022-08-19T08:55:18;13.70;;;12.50;;
8102;SDS011;4094;49.948;11.574;2022-08-19T08:57:51;13.60;;;12.40;;
8102;SDS011;4094;49.948;11.574;2022-08-19T09:00:25;13.30;;;12.00;;
8102;SDS011;4094;49.948;11.574;2022-08-19T09:02:57;13.70;;;12.40;;
8102;SDS011;4094;49.948;11.574;2022-08-19T09:05:33;13.97;;;12.80;;
8102;SDS011;4094;49.948;11.574;2022-08-19T09:08:16;14.07;;;12.77;;
8102;SDS011;4094;49.948;11.574;2022-08-19T09:10:53;13.40;;;12.20;;
8102;SDS011;4094;49.948;11.574;2022-08-19T09:13:26;13.37;;;12.17;;
8102;SDS011;4094;49.948;11.574;2022-08-19T09:16:05;16.97;;;12.10;;
8102;SDS011;4094;49.948;11.574;2022-08-19T09:18:40;13.30;;;12.17;;
8102;SDS011;4094;49.948;11.574;2022-08-19T09:21:12;14.27;;;12.93;;
8102;SDS011;4094;49.948;11.574;2022-08-19T09:23:41;14.60;;;13.20;;
8102;SDS011;4094;49.948;11.574;2022-08-19T09:26:12;15.57;;;13.57;;
8102;SDS011;4094;49.948;11.574;2022-08-19T09:28:43;15.23;;;13.97;;
8102;SDS011;4094;49.948;11.574;2022-08-19T09:31:17;16.33;;;14.87;;
8102;SDS011;4094;49.948;11.574;2022-08-19T09:33:47;16.27;;;14.77;;
8102;SDS011;4094;49.948;11.574;2022-08-19T09:36:20;16.43;;;14.83;;
8102;SDS011;4094;49.948;11.574;2022-08-19T09:39:02;17.63;;;16.03;;
8102;SDS011;4094;49.948;11.574;2022-08-19T09:41:43;18.33;;;16.50;;
8102;SDS011;4094;49.948;11.574;2022-08-19T09:44:15;18.80;;;16.90;;
8102;SDS011;4094;49.948;11.574;2022-08-19T09:46:45;18.43;;;16.57;;
8102;SDS011;4094;49.948;11.574;2022-08-19T09:49:15;19.13;;;17.37;;
8102;SDS011;4094;49.948;11.574;2022-08-19T09:51:48;18.40;;;16.57;;
8102;SDS011;4094;49.948;11.574;2022-08-19T09:54:18;18.20;;;16.30;;
8102;SDS011;4094;49.948;11.574;2022-08-19T09:56:51;18.10;;;16.37;;
8102;SDS011;4094;49.948;11.574;2022-08-19T09:59:21;18.87;;;16.97;;
8102;SDS011;4094;49.948;11.574;2022-08-19T10:01:50;18.43;;;16.43;;
8102;SDS011;4094;49.948;11.574;2022-08-19T10:04:20;17.57;;;15.77;;
8102;SDS011;4094;49.948;11.574;2022-08-19T10:06:55;16.57;;;15.03;;
8102;SDS011;4094;49.948;11.574;2022-08-19T10:09:24;17.90;;;16.10;;
8102;SDS011;4094;49.948;11.574;2022-08-19T10:12:01;17.53;;;15.83;;
8102;SDS011;4094;49.948;11.574;2022-08-19T10:14:32;18.73;;;16.83;;
8102;SDS011;4094;49.948;11.574;2022-08-19T10:17:02;19.90;;;17.77;;
8102;SDS011;4094;49.948;11.574;2022-08-19T10:19:49;18.07;;;16.23;;
8102;SDS011;4094;49.948;11.574;2022-08-19T10:22:23;16.87;;;15.37;;
8102;SDS011;4094;49.948;11.574;2022-08-19T10:24:53;17.97;;;16.27;;
8102;SDS011;4094;49.948;11.574;2022-08-19T10:27:23;18.57;;;16.67;;
8102;SDS011;4094;49.948;11.574;2022-08-19T10:29:52;19.37;;;17.47;;
8102;SDS011;4094;49.948;11.574;2022-08-19T10:32:24;18.33;;;16.47;;
8102;SDS011;4094;49.948;11.574;2022-08-19T10:35:00;16.93;;;15.43;;
8102;SDS011;4094;49.948;11.574;2022-08-19T10:37:33;18.00;;;16.37;;
8102;SDS011;4094;49.948;11.574;2022-08-19T10:40:16;16.00;;;14.47;;
8102;SDS011;4094;49.948;11.574;2022-08-19T10:42:45;15.17;;;13.77;;
8102;SDS011;4094;49.948;11.574;2022-08-19T10:45:14;14.47;;;13.20;;
8102;SDS011;4094;49.948;11.574;2022-08-19T10:47:43;14.63;;;13.33;;
8102;SDS011;4094;49.948;11.574;2022-08-19T10:50:13;16.03;;;14.63;;
8102;SDS011;4094;49.948;11.574;2022-08-19T10:53:04;16.40;;;14.77;;
8102;SDS011;4094;49.948;11.574;2022-08-19T10:55:36;14.97;;;13.57;;
8102;SDS011;4094;49.948;11.574;2022-08-19T10:58:22;14.70;;;13.40;;
8102;SDS011;4094;49.948;11.574;2022-08-19T11:00:53;13.83;;;12.60;;
8102;SDS011;4094;49.948;11.574;2022-08-19T11:03:24;14.07;;;12.87;;
8102;SDS011;4094;49.948;11.574;2022-08-19T11:05:58;12.63;;;11.53;;
8102;SDS011;4094;49.948;11.574;2022-08-19T11:08:29;13.00;;;11.90;;
8102;SDS011;4094;49.948;11.574;2022-08-19T11:10:59;13.23;;;11.63;;
8102;SDS011;4094;49.948;11.574;2022-08-19T11:13:31;13.77;;;12.57;;
8102;SDS011;4094;49.948;11.574;2022-08-19T11:16:03;12.27;;;11.17;;
8102;SDS011;4094;49.948;11.574;2022-08-19T11:18:36;13.20;;;12.07;;
8102;SDS011;4094;49.948;11.574;2022-08-19T11:21:12;12.13;;;11.13;;
8102;SDS011;4094;49.948;11.574;2022-08-19T11:23:48;12.73;;;11.63;;
8102;SDS011;4094;49.948;11.574;2022-08-19T11:26:19;12.33;;;11.23;;
8102;SDS011;4094;49.948;11.574;2022-08-19T11:28:49;11.97;;;10.90;;
8102;SDS011;4094;49.948;11.574;2022-08-19T11:31:22;11.17;;;10.27;;
8102;SDS011;4094;49.948;11.574;2022-08-19T11:33:56;11.80;;;10.70;;
8102;SDS011;4094;49.948;11.574;2022-08-19T11:36:27;11.23;;;10.33;;
8102;SDS011;4094;49.948;11.574;2022-08-19T11:38:58;10.53;;;9.73;;
8102;SDS011;4094;49.948;11.574;2022-08-19T11:41:28;11.13;;;10.07;;
8102;SDS011;4094;49.948;11.574;2022-08-19T11:43:57;11.33;;;10.43;;
8102;SDS011;4094;49.948;11.574;2022-08-19T11:46:26;9.17;;;8.43;;
8102;SDS011;4094;49.948;11.574;2022-08-19T11:48:56;8.27;;;7.53;;
8102;SDS011;4094;49.948;11.574;2022-08-19T11:51:27;7.90;;;7.30;;
8102;SDS011;4094;49.948;11.574;2022-08-19T11:53:58;7.87;;;7.17;;
8102;SDS011;4094;49.948;11.574;2022-08-19T11:56:28;7.73;;;7.13;;
8102;SDS011;4094;49.948;11.574;2022-08-19T11:58:57;7.10;;;6.40;;
8102;SDS011;4094;49.948;11.574;2022-08-19T12:01:28;7.20;;;6.50;;
8102;SDS011;4094;49.948;11.574;2022-08-19T12:03:58;6.80;;;6.30;;
8102;SDS011;4094;49.948;11.574;2022-08-19T12:06:30;6.73;;;6.13;;
8102;SDS011;4094;49.948;11.574;2022-08-19T12:09:03;6.87;;;6.33;;
8102;SDS011;4094;49.948;11.574;2022-08-19T12:11:34;6.60;;;6.00;;
8102;SDS011;4094;49.948;11.574;2022-08-19T12:14:05;6.43;;;5.93;;
8102;SDS011;4094;49.948;11.574;2022-08-19T12:16:41;7.23;;;6.63;;
8102;SDS011;4094;49.948;11.574;2022-08-19T12:19:18;7.23;;;6.63;;
8102;SDS011;4094;49.948;11.574;2022-08-19T12:21:49;7.27;;;6.57;;
8102;SDS011;4094;49.948;11.574;2022-08-19T12:24:21;6.73;;;6.13;;
8102;SDS011;4094;49.948;11.574;2022-08-19T12:26:51;7.40;;;6.80;;
8102;SDS011;4094;49.948;11.574;2022-08-19T12:29:21;7.27;;;6.67;;
8102;SDS011;4094;49.948;11.574;2022-08-19T12:31:56;7.07;;;6.37;;
8102;SDS011;4094;49.948;11.574;2022-08-19T12:34:30;6.97;;;6.37;;
8102;SDS011;4094;49.948;11.574;2022-08-19T12:37:01;6.43;;;5.93;;
8102;SDS011;4094;49.948;11.574;2022-08-19T12:39:35;6.67;;;6.17;;
8102;SDS011;4094;49.948;11.574;2022-08-19T12:42:05;7.13;;;6.53;;
8102;SDS011;4094;49.948;11.574;2022-08-19T12:44:36;7.60;;;6.90;;
8102;SDS011;4094;49.948;11.574;2022-08-19T12:47:08;7.57;;;7.00;;
8102;SDS011;4094;49.948;11.574;2022-08-19T12:49:39;7.60;;;6.90;;
8102;SDS011;4094;49.948;11.574;2022-08-19T12:52:23;7.97;;;7.27;;
8102;SDS011;4094;49.948;11.574;2022-08-19T12:54:56;8.17;;;7.23;;
8102;SDS011;4094;49.948;11.574;2022-08-19T12:57:26;8.17;;;7.37;;
8102;SDS011;4094;49.948;11.574;2022-08-19T13:00:00;7.33;;;6.73;;
8102;SDS011;4094;49.948;11.574;2022-08-19T13:02:33;7.87;;;7.17;;
8102;SDS011;4094;49.948;11.574;2022-08-19T13:05:06;7.03;;;6.43;;
8102;SDS011;4094;49.948;11.574;2022-08-19T13:07:39;7.37;;;6.77;;
8102;SDS011;4094;49.948;11.574;2022-08-19T13:10:11;7.37;;;6.77;;
8102;SDS011;4094;49.948;11.574;2022-08-19T13:12:42;7.17;;;6.57;;
8102;SDS011;4094;49.948;11.574;2022-08-19T13:15:13;7.50;;;6.90;;
8102;SDS011;4094;49.948;11.574;2022-08-19T13:17:50;7.30;;;6.60;;
8102;SDS011;4094;49.948;11.574;2022-08-19T13:20:24;6.50;;;5.90;;
8102;SDS011;4094;49.948;11.574;2022-08-19T13:22:53;7.50;;;6.63;;
8102;SDS011;4094;49.948;11.574;2022-08-19T13:25:25;7.30;;;6.70;;
8102;SDS011;4094;49.948;11.574;2022-08-19T13:27:55;7.33;;;6.73;;
8102;SDS011;4094;49.948;11.574;2022-08-19T13:30:25;6.43;;;6.03;;
8102;SDS011;4094;49.948;11.574;2022-08-19T13:33:12;6.73;;;6.13;;
8102;SDS011;4094;49.948;11.574;2022-08-19T13:35:44;6.63;;;6.13;;
8102;SDS011;4094;49.948;11.574;2022-08-19T13:38:20;6.80;;;6.20;;
8102;SDS011;4094;49.948;11.574;2022-08-19T13:40:52;6.37;;;5.77;;
8102;SDS011;4094;49.948;11.574;2022-08-19T13:43:24;6.20;;;5.70;;
8102;SDS011;4094;49.948;11.574;2022-08-19T13:45:54;6.33;;;5.73;;
8102;SDS011;4094;49.948;11.574;2022-08-19T13:48:25;5.73;;;5.30;;
8102;SDS011;4094;49.948;11.574;2022-08-19T13:50:54;5.40;;;5.00;;
8102;SDS011;4094;49.948;11.574;2022-08-19T13:53:23;5.43;;;5.03;;
8102;SDS011;4094;49.948;11.574;2022-08-19T13:55:54;4.97;;;4.67;;
8102;SDS011;4094;49.948;11.574;2022-08-19T13:58:23;4.97;;;4.67;;
8102;SDS011;4094;49.948;11.574;2022-08-19T14:00:52;5.27;;;4.87;;
8102;SDS011;4094;49.948;11.574;2022-08-19T14:03:22;4.70;;;4.30;;
8102;SDS011;4094;49.948;11.574;2022-08-19T14:05:51;5.43;;;4.93;;
8102;SDS011;4094;49.948;11.574;2022-08-19T14:08:20;5.27;;;4.87;;
8102;SDS011;4094;49.948;11.574;2022-08-19T14:10:50;4.90;;;4.60;;
8102;SDS011;4094;49.948;11.574;2022-08-19T14:13:21;4.80;;;4.40;;
8102;SDS011;4094;49.948;11.574;2022-08-19T14:15:51;4.77;;;4.47;;
8102;SDS011;4094;49.948;11.574;2022-08-19T14:18:21;4.30;;;4.00;;
8102;SDS011;4094;49.948;11.574;2022-08-19T14:20:54;4.70;;;4.40;;
8102;SDS011;4094;49.948;11.574;2022-08-19T14:23:25;4.97;;;4.57;;
8102;SDS011;4094;49.948;11.574;2022-08-19T14:26:02;5.37;;;4.90;;
8102;SDS011;4094;49.948;11.574;2022-08-19T14:28:33;6.57;;;5.50;;
8102;SDS011;4094;49.948;11.574;2022-08-19T14:31:02;5.13;;;4.73;;
8102;SDS011;4094;49.948;11.574;2022-08-19T14:33:32;5.70;;;5.30;;
8102;SDS011;4094;49.948;11.574;2022-08-19T14:36:01;6.23;;;5.73;;
8102;SDS011;4094;49.948;11.574;2022-08-19T14:38:31;5.80;;;5.40;;
8102;SDS011;4094;49.948;11.574;2022-08-19T14:41:11;6.13;;;5.63;;
8102;SDS011;4094;49.948;11.574;2022-08-19T14:43:45;6.30;;;5.80;;
8102;SDS011;4094;49.948;11.574;2022-08-19T14:46:16;6.03;;;5.53;;
8102;SDS011;4094;49.948;11.574;2022-08-19T14:48:48;6.13;;;5.70;;
8102;SDS011;4094;49.948;11.574;2022-08-19T14:51:19;6.30;;;5.80;;
8102;SDS011;4094;49.948;11.574;2022-08-19T14:53:50;6.73;;;6.23;;
8102;SDS011;4094;49.948;11.574;2022-08-19T14:56:21;5.90;;;5.50;;
8102;SDS011;4094;49.948;11.574;2022-08-19T14:58:53;6.37;;;5.87;;
8102;SDS011;4094;49.948;11.574;2022-08-19T15:01:26;7.20;;;6.60;;
8102;SDS011;4094;49.948;11.574;2022-08-19T15:03:56;7.37;;;6.77;;
8102;SDS011;4094;49.948;11.574;2022-08-19T15:06:25;6.53;;;6.13;;
8102;SDS011;4094;49.948;11.574;2022-08-19T15:08:55;7.40;;;6.80;;
8102;SDS011;4094;49.948;11.574;2022-08-19T15:11:30;7.07;;;6.47;;